createdAt,value
2023-03-08T05:15:43.533Z,80.34
2023-03-08T05:18:10.581Z,80.96
2023-03-08T05:20:40.040Z,83.11
2023-03-08T05:23:10.107Z,81.07
2023-03-08T05:25:45.042Z,82.61
2023-03-08T05:28:15.982Z,81.20
2023-03-08T05:30:48.566Z,80.81
2023-03-08T05:33:17.542Z,81.00
2023-03-08T05:36:00.737Z,81.99
2023-03-08T05:38:33.732Z,80.99
2023-03-08T05:41:09.860Z,81.41
2023-03-08T05:43:37.166Z,82.46
2023-03-08T05:46:10.387Z,82.62
2023-03-08T05:48:40.606Z,81.74
2023-03-08T05:51:12.185Z,81.79
2023-03-08T05:53:39.307Z,80.36
2023-03-08T05:56:11.913Z,81.51
2023-03-08T05:58:48.444Z,82.98
2023-03-08T06:01:22.165Z,80.89
2023-03-08T06:03:52.503Z,81.05
2023-03-08T06:06:21.638Z,80.58
2023-03-08T06:08:48.834Z,80.36
2023-03-08T06:11:16.223Z,83.55
2023-03-08T06:13:45.667Z,82.43
2023-03-08T06:16:12.985Z,82.21
2023-03-08T06:18:43.322Z,82.98
2023-03-08T06:21:18.018Z,81.89
2023-03-08T06:23:48.271Z,80.42
2023-03-08T06:26:16.254Z,82.39
2023-03-08T06:28:44.007Z,82.45
2023-03-08T06:31:14.703Z,81.94
2023-03-08T06:33:42.028Z,81.02
2023-03-08T06:36:16.582Z,81.06
2023-03-08T06:38:45.797Z,81.76
2023-03-08T06:41:14.180Z,81.22
2023-03-08T06:43:43.364Z,81.56
2023-03-08T06:46:23.616Z,80.78
2023-03-08T06:48:57.574Z,81.62
2023-03-08T06:51:26.848Z,79.75
2023-03-08T06:53:53.998Z,81.50
2023-03-08T06:56:24.390Z,81.23
2023-03-08T06:58:51.029Z,80.41
2023-03-08T11:32:57.317Z,73.97
2023-03-08T11:35:49.768Z,76.15
2023-03-08T11:38:24.781Z,76.39
2023-03-08T11:40:57.281Z,76.67
2023-03-08T11:43:42.167Z,80.12
2023-03-08T11:46:23.434Z,79.14
2023-03-08T11:48:53.141Z,76.84
2023-03-08T11:51:28.823Z,76.86
2023-03-08T11:54:12.638Z,77.39
2023-03-08T11:56:56.848Z,77.79
2023-03-08T11:59:38.931Z,78.37
2023-03-08T12:02:10.340Z,76.92
2023-03-08T12:05:01.658Z,76.87
2023-03-08T12:07:45.289Z,75.60
2023-03-08T12:10:27.167Z,77.75
2023-03-08T12:13:20.649Z,80.10
2023-03-08T12:16:17.562Z,79.74
2023-03-08T12:19:15.931Z,78.85
2023-03-08T12:21:59.232Z,78.23
2023-03-08T12:24:25.842Z,77.18
2023-03-08T12:27:04.015Z,75.17
2023-03-08T12:29:43.905Z,78.10
2023-03-08T12:32:13.270Z,78.09
2023-03-08T12:34:41.517Z,74.44
2023-03-08T12:37:22.167Z,76.18
2023-03-08T12:40:44.108Z,75.27
2023-03-08T12:43:19.696Z,78.65
2023-03-08T12:45:47.493Z,77.39
2023-03-08T12:48:20.237Z,75.35
2023-03-08T12:51:26.737Z,75.46
2023-03-08T12:53:53.391Z,74.67
2023-03-08T12:56:29.944Z,74.11
2023-03-08T12:59:11.718Z,78.01
2023-03-08T13:01:44.319Z,78.71
2023-03-08T13:04:41.342Z,79.97
2023-03-08T13:07:14.790Z,78.32
2023-03-08T13:09:41.536Z,79.15
2023-03-08T13:12:38.180Z,80.63
2023-03-08T13:15:22.303Z,79.09
2023-03-08T13:18:12.225Z,79.74
2023-03-08T13:21:05.130Z,78.30
2023-03-08T13:23:43.916Z,77.62
2023-03-08T13:26:16.681Z,78.19
2023-03-08T13:28:47.970Z,81.73
2023-03-08T13:31:27.264Z,80.04
2023-03-08T13:33:59.243Z,78.44
2023-03-08T13:36:32.128Z,79.02
2023-03-08T13:39:08.208Z,79.59
2023-03-08T13:41:36.555Z,79.20
2023-03-08T13:44:14.150Z,78.87
2023-03-08T13:46:43.145Z,79.44
2023-03-08T13:49:27.258Z,78.99
2023-03-08T13:51:57.292Z,77.60
2023-03-08T13:54:30.482Z,78.36
2023-03-08T13:57:00.160Z,78.04
2023-03-08T13:59:27.094Z,81.62
2023-03-08T14:01:55.448Z,81.85
2023-03-08T14:04:25.402Z,82.41
2023-03-08T14:06:54.408Z,80.44
2023-03-08T14:09:21.865Z,79.24
2023-03-08T14:12:01.096Z,78.46
2023-03-08T14:14:32.596Z,80.90
2023-03-08T14:16:59.995Z,79.70
2023-03-08T14:19:39.698Z,78.64
2023-03-08T14:22:28.713Z,80.16
2023-03-08T14:25:05.270Z,81.41
2023-03-08T14:27:42.621Z,81.46
2023-03-08T14:30:35.671Z,79.40
2023-03-08T14:33:14.423Z,79.93
2023-03-08T14:35:45.193Z,79.80
2023-03-08T14:38:23.819Z,79.01
2023-03-08T14:40:51.288Z,80.32
2023-03-08T14:43:24.449Z,79.67
2023-03-08T14:46:01.986Z,80.35
2023-03-08T14:48:34.256Z,78.73
2023-03-08T14:51:03.988Z,78.96
2023-03-08T14:53:35.197Z,79.13
2023-03-08T14:56:15.197Z,79.49
2023-03-08T14:58:53.785Z,81.44
2023-03-08T15:01:26.214Z,80.24
2023-03-08T15:03:52.943Z,81.53
2023-03-08T15:06:22.893Z,81.34
2023-03-08T15:08:50.123Z,80.26
2023-03-08T15:11:17.092Z,82.32
2023-03-08T15:13:45.905Z,82.38
2023-03-08T15:16:14.460Z,82.40
2023-03-08T15:18:41.470Z,80.13
2023-03-08T15:21:13.964Z,80.96
2023-03-08T15:23:41.946Z,81.84
2023-03-08T15:26:11.882Z,83.94
2023-03-08T15:28:38.423Z,83.23
2023-03-08T15:31:05.535Z,81.99
2023-03-08T15:33:32.121Z,82.38
2023-03-08T15:35:58.970Z,82.29
2023-03-08T15:38:25.752Z,84.51
2023-03-08T15:40:52.362Z,82.32
2023-03-08T15:43:18.885Z,81.70
2023-03-08T15:45:45.590Z,80.59
2023-03-08T15:48:17.991Z,81.88
2023-03-08T15:50:45.038Z,81.44
2023-03-08T15:53:12.756Z,82.99
2023-03-08T15:55:41.101Z,82.75
2023-03-08T15:58:08.930Z,83.05
2023-03-08T16:00:36.196Z,81.91
2023-03-08T16:03:02.981Z,80.75
2023-03-08T16:05:30.610Z,82.75
2023-03-08T16:08:02.840Z,84.30
2023-03-08T16:10:33.517Z,83.29
2023-03-08T16:13:00.083Z,81.16
2023-03-08T16:15:27.054Z,82.38
2023-03-08T16:17:53.686Z,83.63
2023-03-08T16:20:23.145Z,84.16
2023-03-08T16:22:50.596Z,85.10
2023-03-08T16:25:17.485Z,83.28
2023-03-08T16:27:44.038Z,82.21
2023-03-08T16:30:12.538Z,83.47
2023-03-08T16:32:39.358Z,82.57
2023-03-08T16:35:06.535Z,81.47
2023-03-08T16:37:33.132Z,80.36
2023-03-08T16:40:02.052Z,80.42
2023-03-08T16:42:29.829Z,82.90
2023-03-08T16:44:56.916Z,81.19
2023-03-08T16:47:25.234Z,83.91
2023-03-08T16:49:52.953Z,84.89
2023-03-08T16:52:19.732Z,83.07
2023-03-08T16:54:46.353Z,84.13
2023-03-08T16:57:19.841Z,83.68
2023-03-08T16:59:47.579Z,82.41
2023-03-08T17:02:17.881Z,82.65
2023-03-08T17:04:45.125Z,84.51
2023-03-08T17:07:11.811Z,83.58
2023-03-08T17:09:39.062Z,82.71
2023-03-08T17:12:06.537Z,82.89
2023-03-08T17:14:34.822Z,81.35
2023-03-08T17:17:01.935Z,80.58
2023-03-08T17:19:28.609Z,80.76
2023-03-08T17:21:55.834Z,81.48
2023-03-08T17:24:22.694Z,82.36
2023-03-08T17:26:51.238Z,80.71
2023-03-08T17:29:18.210Z,79.91
2023-03-08T17:31:45.021Z,83.60
2023-03-08T17:34:11.663Z,82.87
2023-03-08T17:36:38.886Z,83.72
2023-03-08T17:39:06.180Z,82.12
2023-03-08T17:41:33.118Z,81.78
2023-03-08T17:43:59.874Z,80.79
2023-03-08T17:46:27.729Z,80.05
2023-03-08T17:48:55.860Z,81.81
2023-03-08T17:51:26.191Z,80.63
2023-03-08T17:53:53.333Z,82.70
2023-03-08T17:56:29.591Z,84.12
2023-03-08T17:58:58.059Z,85.17
2023-03-08T18:01:27.459Z,82.60
2023-03-08T18:03:55.462Z,85.08
2023-03-08T18:06:37.860Z,83.03
2023-03-08T18:09:07.976Z,84.35
2023-03-08T18:11:37.936Z,84.91
2023-03-08T18:14:10.402Z,85.81
2023-03-08T18:16:37.728Z,84.96
2023-03-08T18:19:05.467Z,86.09
2023-03-08T18:21:33.876Z,84.93
2023-03-08T18:24:00.738Z,83.92
2023-03-08T18:26:28.006Z,82.78
2023-03-08T18:28:54.619Z,82.74
2023-03-08T18:31:25.905Z,84.81
2023-03-08T18:33:54.676Z,84.51
2023-03-08T18:36:22.115Z,84.38
2023-03-08T18:38:48.844Z,85.00
2023-03-08T18:41:25.449Z,84.02
2023-03-08T18:43:52.151Z,82.87
2023-03-08T18:46:19.216Z,82.47
2023-03-08T18:48:50.665Z,84.21
2023-03-08T18:51:17.374Z,83.66
2023-03-08T18:53:44.599Z,82.84
2023-03-08T18:56:11.174Z,82.85
2023-03-08T18:58:37.878Z,82.89
2023-03-08T19:01:14.059Z,84.65
2023-03-08T19:03:41.789Z,83.80
2023-03-08T19:06:09.779Z,85.27
2023-03-08T19:08:36.556Z,85.33
2023-03-08T19:11:18.023Z,84.11
2023-03-08T19:13:44.854Z,83.32
2023-03-08T19:16:20.896Z,82.35
2023-03-08T19:18:49.244Z,81.81
2023-03-08T19:21:17.919Z,81.51
2023-03-08T19:23:44.685Z,83.03
2023-03-08T19:26:38.096Z,83.97
2023-03-08T19:29:11.363Z,82.34
2023-03-08T19:31:51.511Z,84.29
2023-03-08T19:34:19.939Z,83.85
2023-03-08T19:36:47.757Z,82.56
2023-03-08T19:39:20.053Z,82.65
2023-03-08T19:41:58.444Z,82.28
2023-03-08T19:44:26.041Z,82.30
2023-03-08T19:46:53.568Z,81.55
2023-03-08T19:49:22.604Z,82.06
2023-03-08T19:51:51.130Z,81.69
2023-03-08T19:54:19.193Z,81.81
2023-03-08T19:56:45.920Z,80.87
2023-03-08T19:59:12.737Z,82.19
2023-03-08T20:01:40.538Z,81.28
2023-03-08T20:04:08.551Z,80.93
2023-03-08T20:06:41.516Z,80.99
2023-03-08T20:09:09.763Z,80.44
2023-03-08T20:11:37.320Z,81.39
2023-03-08T20:14:04.873Z,81.00
2023-03-08T20:16:31.651Z,83.10
2023-03-08T20:18:58.542Z,81.54
2023-03-08T20:21:28.516Z,80.85
2023-03-08T20:23:56.210Z,81.70
2023-03-08T20:26:24.207Z,82.10
2023-03-08T20:28:51.691Z,82.49
2023-03-08T20:31:19.225Z,81.75
2023-03-08T20:33:46.103Z,83.46
2023-03-08T20:36:13.002Z,82.99
2023-03-08T20:38:39.912Z,81.55
2023-03-08T20:41:15.680Z,81.58
2023-03-08T20:43:44.155Z,81.60
2023-03-08T20:46:12.945Z,82.27
2023-03-08T20:48:41.176Z,83.19
2023-03-08T20:51:10.858Z,82.28
2023-03-08T20:53:37.796Z,83.60
2023-03-08T20:56:06.246Z,82.30
2023-03-08T20:58:33.056Z,82.31
2023-03-08T21:00:59.956Z,81.66
2023-03-08T21:03:27.510Z,81.56
2023-03-08T21:05:54.103Z,81.82
2023-03-08T21:08:24.185Z,81.66
2023-03-08T21:10:50.830Z,81.41
2023-03-08T21:13:17.686Z,82.41
2023-03-08T21:15:44.613Z,82.04
2023-03-08T21:18:11.280Z,81.86
2023-03-08T21:20:38.480Z,83.86
2023-03-08T21:23:05.073Z,83.71
2023-03-08T21:25:35.701Z,83.68
2023-03-08T21:28:02.250Z,83.99
2023-03-08T21:30:30.585Z,84.49
2023-03-08T21:32:57.162Z,84.18
2023-03-08T21:35:24.013Z,84.82
2023-03-08T21:37:50.788Z,84.70
2023-03-08T21:40:17.580Z,83.64
2023-03-08T21:42:44.122Z,83.52
2023-03-08T21:45:10.940Z,85.03
2023-03-08T21:47:37.824Z,83.92
2023-03-08T21:50:04.846Z,84.93
2023-03-08T21:52:31.453Z,84.58
2023-03-08T21:54:58.060Z,86.29
2023-03-08T21:57:24.661Z,84.92
2023-03-08T21:59:51.245Z,85.55
